Time;durP1;ratioP1;P1;durP2;ratioP2;P2;SDS_P1;SDS_P2;PMS_P1;PMS_P2;Temp;Humidity;BMP_temperature;BMP_pressure;BME280_temperature;BME280_humidity;BME280_pressure;Samples;Min_cycle;Max_cycle;Signal;HPM_P1;HPM_P2
2022/01/10 00:00:16;;;;;;;11.88;8.60;;;3.60;99.90;;;;;;5027805;28;20226;-86
2022/01/10 00:02:45;;;;;;;11.38;10.27;;;3.60;99.90;;;;;;5011000;28;20290;-83
2022/01/10 00:05:12;;;;;;;12.88;11.00;;;3.60;99.90;;;;;;5021728;28;20215;-84
2022/01/10 00:07:40;;;;;;;11.60;9.35;;;3.30;99.90;;;;;;5022328;28;20219;-84
2022/01/10 00:10:08;;;;;;;10.20;9.35;;;3.20;99.90;;;;;;5022666;28;20242;-86
2022/01/10 00:12:36;;;;;;;9.57;8.70;;;3.10;99.90;;;;;;5014869;28;20236;-84
2022/01/10 00:15:05;;;;;;;11.73;10.05;;;3.00;99.90;;;;;;5009733;28;20215;-84
2022/01/10 00:17:36;;;;;;;9.40;8.50;;;2.90;99.90;;;;;;5009899;28;20220;-84
2022/01/10 00:20:05;;;;;;;10.65;9.65;;;3.10;99.90;;;;;;5007550;28;20223;-84
2022/01/10 00:22:33;;;;;;;11.90;10.57;;;3.20;99.90;;;;;;5005168;28;20207;-83
2022/01/10 00:25:00;;;;;;;11.38;10.10;;;3.20;99.90;;;;;;5004444;28;20225;-83
2022/01/10 00:27:27;;;;;;;13.20;9.43;;;3.30;99.90;;;;;;4995255;28;20234;-83
2022/01/10 00:29:54;;;;;;;10.85;9.13;;;3.40;99.90;;;;;;4995640;28;20207;-84
2022/01/10 00:32:23;;;;;;;11.50;9.10;;;3.50;99.90;;;;;;4995859;28;20246;-83
2022/01/10 00:34:51;;;;;;;10.73;8.95;;;3.50;99.90;;;;;;4995725;28;20581;-84
2022/01/10 00:37:18;;;;;;;10.05;8.90;;;3.50;99.90;;;;;;4979095;28;20230;-84
2022/01/10 00:39:46;;;;;;;12.70;8.40;;;3.50;99.90;;;;;;5015852;28;20206;-83
2022/01/10 00:42:14;;;;;;;10.00;8.75;;;3.60;99.90;;;;;;5024400;28;20232;-85
2022/01/10 00:44:46;;;;;;;9.63;8.63;;;3.60;99.90;;;;;;5014460;28;20200;-84
2022/01/10 00:47:17;;;;;;;10.65;8.88;;;3.60;99.90;;;;;;4998115;28;20312;-84
2022/01/10 00:49:44;;;;;;;14.00;8.65;;;3.70;99.90;;;;;;4997460;28;20244;-84
2022/01/10 00:52:13;;;;;;;10.65;9.73;;;3.70;99.90;;;;;;5014841;28;20201;-83
2022/01/10 00:54:44;;;;;;;14.00;11.80;;;3.70;99.90;;;;;;5007778;28;20245;-83
2022/01/10 00:57:12;;;;;;;11.80;10.60;;;3.70;99.90;;;;;;4997412;28;20235;-84
2022/01/10 00:59:42;;;;;;;12.25;10.40;;;3.70;99.90;;;;;;4997520;28;20268;-84
2022/01/10 01:02:09;;;;;;;9.57;8.73;;;3.70;99.90;;;;;;4998746;28;20228;-85
2022/01/10 01:04:36;;;;;;;10.65;9.55;;;3.70;99.90;;;;;;5004362;28;20204;-85
2022/01/10 01:07:03;;;;;;;9.48;8.00;;;3.70;99.90;;;;;;5013446;28;20238;-84
2022/01/10 01:09:32;;;;;;;12.68;9.07;;;3.70;99.90;;;;;;5013312;28;20585;-84
2022/01/10 01:12:16;;;;;;;9.57;8.65;;;3.70;99.90;;;;;;5005247;28;20201;-84
2022/01/10 01:14:57;;;;;;;9.80;8.70;;;3.80;99.90;;;;;;5013325;28;20252;-83
2022/01/10 01:17:35;;;;;;;10.23;9.18;;;3.70;99.90;;;;;;5016775;28;20227;-83
2022/01/10 01:20:27;;;;;;;11.00;9.48;;;3.70;99.90;;;;;;5015820;28;20204;-84
2022/01/10 01:25:39;;;;;;;9.50;8.40;;;3.50;99.90;;;;;;5013110;28;20205;-84
2022/01/10 01:28:06;;;;;;;8.23;7.63;;;3.50;99.90;;;;;;5012682;28;20234;-83
2022/01/10 01:30:34;;;;;;;8.25;7.45;;;3.50;99.90;;;;;;4996297;28;20202;-83
2022/01/10 01:33:01;;;;;;;10.63;8.80;;;3.50;99.90;;;;;;4994821;28;20217;-83
2022/01/10 01:35:29;;;;;;;9.88;8.02;;;3.50;99.90;;;;;;5014665;28;20207;-84
2022/01/10 01:37:58;;;;;;;7.47;6.78;;;3.50;99.90;;;;;;5008447;28;20728;-84
2022/01/10 01:40:29;;;;;;;7.30;6.70;;;3.50;99.90;;;;;;5000342;28;20222;-84
2022/01/10 01:43:01;;;;;;;8.50;6.55;;;3.60;99.90;;;;;;5003998;28;20204;-84
2022/01/10 01:45:39;;;;;;;7.43;6.72;;;3.60;99.90;;;;;;4999795;28;20217;-84
2022/01/10 01:48:08;;;;;;;9.18;8.20;;;3.60;99.90;;;;;;5000097;28;20231;-85
2022/01/10 01:50:36;;;;;;;8.05;6.90;;;3.60;99.90;;;;;;4995628;28;20651;-83
2022/01/10 01:53:03;;;;;;;8.10;7.30;;;3.50;99.90;;;;;;4995856;28;20198;-84
2022/01/10 01:55:31;;;;;;;7.50;6.80;;;3.50;99.90;;;;;;4995796;28;20586;-84
2022/01/10 01:58:03;;;;;;;8.73;7.82;;;3.50;99.90;;;;;;5007165;28;20223;-84
2022/01/10 02:00:30;;;;;;;8.73;7.82;;;3.60;99.90;;;;;;5012888;28;20219;-83
2022/01/10 02:02:58;;;;;;;8.07;7.20;;;3.60;99.90;;;;;;4999586;28;20215;-83
2022/01/10 02:05:24;;;;;;;8.63;7.70;;;3.70;99.90;;;;;;4993017;28;20214;-83
2022/01/10 02:07:55;;;;;;;8.85;8.05;;;3.70;99.90;;;;;;5004297;28;20705;-83
2022/01/10 02:10:25;;;;;;;8.20;7.38;;;3.70;99.90;;;;;;5011767;28;20275;-83
2022/01/10 02:12:53;;;;;;;8.38;7.47;;;3.70;99.90;;;;;;5001661;28;20207;-83
2022/01/10 02:15:34;;;;;;;8.68;7.88;;;3.50;99.90;;;;;;4992681;28;20214;-83
2022/01/10 02:18:04;;;;;;;10.35;8.00;;;3.50;99.90;;;;;;5003776;28;20251;-83
2022/01/10 02:20:33;;;;;;;12.98;8.70;;;3.60;99.90;;;;;;5018397;28;20281;-83
2022/01/10 02:23:01;;;;;;;8.27;7.47;;;3.60;99.90;;;;;;5019102;28;20225;-84
2022/01/10 02:25:29;;;;;;;10.25;8.35;;;3.60;99.90;;;;;;5020614;28;20285;-83
2022/01/10 02:27:56;;;;;;;8.02;7.38;;;3.60;99.90;;;;;;5006403;28;20222;-84
2022/01/10 02:30:24;;;;;;;9.80;8.68;;;3.70;99.90;;;;;;5000430;28;20385;-84
2022/01/10 02:32:52;;;;;;;11.20;10.00;;;3.70;99.90;;;;;;5000461;28;20291;-82
2022/01/10 02:35:21;;;;;;;9.20;7.90;;;3.60;99.90;;;;;;4995582;28;20207;-83
2022/01/10 02:37:52;;;;;;;8.88;8.05;;;3.60;99.90;;;;;;5004606;28;20227;-83
2022/01/10 02:40:21;;;;;;;8.60;7.47;;;3.60;99.90;;;;;;5006612;28;20208;-83
2022/01/10 02:42:48;;;;;;;9.90;8.10;;;3.60;99.90;;;;;;4993866;28;20648;-84
2022/01/10 02:45:16;;;;;;;9.00;8.07;;;3.50;99.90;;;;;;4997492;28;20580;-83
2022/01/10 02:47:44;;;;;;;12.63;8.10;;;3.50;99.90;;;;;;5013148;28;20235;-83
2022/01/10 02:50:12;;;;;;;10.25;8.23;;;3.50;99.90;;;;;;5007849;28;20204;-83
2022/01/10 02:52:40;;;;;;;10.02;7.90;;;3.60;99.90;;;;;;4992733;28;20206;-83
2022/01/10 02:55:11;;;;;;;9.35;7.38;;;3.30;99.90;;;;;;4993386;28;20625;-83
2022/01/10 02:57:38;;;;;;;8.93;8.05;;;3.30;99.90;;;;;;4992569;28;20252;-83
2022/01/10 03:00:09;;;;;;;7.80;7.00;;;3.40;99.90;;;;;;4992838;28;20223;-83
2022/01/10 03:02:37;;;;;;;11.25;7.38;;;3.40;99.90;;;;;;4997690;28;20220;-84
2022/01/10 03:05:05;;;;;;;8.68;7.90;;;3.50;99.90;;;;;;5002659;28;20199;-83
2022/01/10 03:07:33;;;;;;;9.18;8.27;;;3.50;99.90;;;;;;5020375;28;20227;-84
2022/01/10 03:10:00;;;;;;;11.05;7.57;;;3.50;99.90;;;;;;5020535;28;20219;-84
2022/01/10 03:12:30;;;;;;;9.00;8.18;;;3.50;99.90;;;;;;5020772;28;20577;-84
2022/01/10 03:14:57;;;;;;;10.25;7.60;;;3.50;99.90;;;;;;5020079;28;20215;-84
2022/01/10 03:17:23;;;;;;;9.25;7.97;;;3.50;99.90;;;;;;5004099;28;20239;-84
2022/01/10 03:19:50;;;;;;;9.20;6.78;;;3.60;99.90;;;;;;5021691;28;20208;-84
2022/01/10 03:22:17;;;;;;;12.55;7.60;;;3.30;99.90;;;;;;5020458;28;20233;-84
2022/01/10 03:24:44;;;;;;;9.15;7.25;;;3.20;99.90;;;;;;5003373;28;20211;-84
2022/01/10 03:27:11;;;;;;;8.90;7.95;;;3.20;99.90;;;;;;5000404;28;20651;-83
2022/01/10 03:29:39;;;;;;;9.35;8.10;;;3.10;99.90;;;;;;5015647;28;20215;-83
2022/01/10 03:32:07;;;;;;;10.93;8.75;;;3.10;99.90;;;;;;5020147;28;20217;-84
2022/01/10 03:34:34;;;;;;;9.13;8.00;;;3.00;99.90;;;;;;5017967;28;20235;-83
2022/01/10 03:37:01;;;;;;;8.50;7.63;;;2.90;99.90;;;;;;5015302;28;20233;-84
2022/01/10 03:39:28;;;;;;;9.50;8.25;;;3.00;99.90;;;;;;5001463;28;20213;-83
2022/01/10 03:41:55;;;;;;;9.23;8.00;;;2.90;99.90;;;;;;4995123;28;20227;-83
2022/01/10 03:44:22;;;;;;;9.57;7.72;;;3.00;99.90;;;;;;5007299;28;20211;-83
2022/01/10 03:46:50;;;;;;;9.90;7.47;;;3.00;99.90;;;;;;5014936;28;20211;-83
2022/01/10 03:49:16;;;;;;;8.07;7.38;;;3.00;99.90;;;;;;5006270;28;20675;-84
2022/01/10 03:51:43;;;;;;;8.60;7.72;;;3.10;99.90;;;;;;5004355;28;20205;-84
2022/01/10 03:54:10;;;;;;;8.68;7.75;;;3.00;99.90;;;;;;5012626;28;20211;-85
2022/01/10 03:56:37;;;;;;;8.95;8.05;;;3.00;99.90;;;;;;5023749;28;20215;-84
2022/01/10 03:59:04;;;;;;;11.02;8.82;;;3.00;99.90;;;;;;5022820;28;20202;-85
2022/01/10 04:01:31;;;;;;;9.50;7.88;;;3.20;99.90;;;;;;5022810;28;20223;-84
2022/01/10 04:03:59;;;;;;;11.88;9.00;;;3.20;99.90;;;;;;5022559;28;20287;-83
2022/01/10 04:06:26;;;;;;;11.85;7.82;;;3.40;99.90;;;;;;5019551;28;20594;-84
2022/01/10 04:08:52;;;;;;;17.23;7.50;;;3.40;99.90;;;;;;5012462;28;20574;-83
2022/01/10 04:11:19;;;;;;;10.50;7.47;;;3.40;99.90;;;;;;5015242;28;20228;-83
2022/01/10 04:13:46;;;;;;;11.80;6.85;;;3.40;99.90;;;;;;5006831;28;20697;-83
2022/01/10 04:16:13;;;;;;;10.63;7.90;;;3.20;99.90;;;;;;4995747;28;20233;-83
2022/01/10 04:18:40;;;;;;;14.63;8.30;;;3.00;99.90;;;;;;5001758;28;20233;-84
2022/01/10 04:21:08;;;;;;;8.80;8.00;;;3.00;99.90;;;;;;5014115;28;20216;-83
2022/01/10 04:23:34;;;;;;;11.82;7.30;;;2.90;99.90;;;;;;5008789;28;20267;-83
2022/01/10 04:26:01;;;;;;;15.55;6.95;;;2.90;99.90;;;;;;4993769;28;20217;-82
2022/01/10 04:28:29;;;;;;;12.10;7.75;;;2.90;99.90;;;;;;4998923;28;20226;-83
2022/01/10 04:30:56;;;;;;;9.93;7.20;;;2.90;99.90;;;;;;5014110;28;20616;-83
2022/01/10 04:33:29;;;;;;;12.05;6.75;;;2.80;99.90;;;;;;5013171;28;20204;-83
2022/01/10 04:35:57;;;;;;;11.30;6.38;;;2.90;99.90;;;;;;5013855;28;20689;-83
2022/01/10 04:38:25;;;;;;;15.07;7.15;;;3.00;99.90;;;;;;5013465;28;20309;-83
2022/01/10 04:40:53;;;;;;;10.82;7.00;;;2.90;99.90;;;;;;5017216;28;20216;-83
2022/01/10 04:43:24;;;;;;;12.90;7.13;;;2.90;99.90;;;;;;5018748;28;20253;-83
2022/01/10 04:45:53;;;;;;;8.90;8.10;;;2.80;99.90;;;;;;5008602;28;20195;-84
2022/01/10 04:48:20;;;;;;;14.40;9.30;;;2.80;99.90;;;;;;5006037;28;20233;-84
2022/01/10 04:53:33;;;;;;;12.93;8.00;;;2.80;99.90;;;;;;5018994;28;20288;-84
2022/01/10 04:56:01;;;;;;;13.57;9.02;;;2.90;99.90;;;;;;5018614;28;20213;-84
2022/01/10 04:58:29;;;;;;;13.43;8.05;;;2.90;99.90;;;;;;5004998;28;20657;-84
2022/01/10 05:00:56;;;;;;;14.57;9.40;;;2.80;99.90;;;;;;4998806;28;20217;-83
2022/01/10 05:03:24;;;;;;;20.83;9.13;;;2.90;99.90;;;;;;4999357;28;20237;-84
2022/01/10 05:05:53;;;;;;;9.40;7.65;;;3.00;99.90;;;;;;5002778;28;20222;-84
2022/01/10 05:08:21;;;;;;;14.52;9.77;;;3.10;99.90;;;;;;5021303;28;20243;-84
2022/01/10 05:10:50;;;;;;;18.17;10.30;;;3.10;99.90;;;;;;5017194;28;20240;-84
2022/01/10 05:13:20;;;;;;;15.82;8.82;;;3.10;99.90;;;;;;5017907;28;20672;-83
2022/01/10 05:15:50;;;;;;;11.45;9.20;;;3.20;99.90;;;;;;5018143;28;20210;-84
2022/01/10 05:18:20;;;;;;;12.18;9.43;;;3.20;99.90;;;;;;4978388;28;20238;-83
2022/01/10 05:20:47;;;;;;;14.32;8.82;;;3.20;99.90;;;;;;4975247;28;20289;-83
2022/01/10 05:23:15;;;;;;;15.70;8.88;;;3.30;99.90;;;;;;5012191;28;20298;-83
2022/01/10 05:25:46;;;;;;;11.73;10.55;;;3.40;99.90;;;;;;5012912;28;20629;-83
2022/01/10 05:28:19;;;;;;;11.50;8.57;;;3.40;99.90;;;;;;5010907;28;20227;-83
2022/01/10 05:30:52;;;;;;;15.10;9.68;;;3.40;99.90;;;;;;5012583;28;20214;-83
2022/01/10 05:33:21;;;;;;;15.90;9.63;;;3.50;99.90;;;;;;4993381;28;20688;-83
2022/01/10 05:35:48;;;;;;;16.30;9.25;;;3.50;99.90;;;;;;4999224;28;20210;-85
2022/01/10 05:38:15;;;;;;;13.20;9.07;;;3.50;99.90;;;;;;5017314;28;20252;-84
2022/01/10 05:40:42;;;;;;;12.20;9.65;;;3.60;99.90;;;;;;5017871;28;20213;-84
2022/01/10 05:43:10;;;;;;;13.57;9.80;;;3.70;99.90;;;;;;5001215;28;20763;-83
2022/01/10 05:45:39;;;;;;;13.27;10.25;;;3.70;99.90;;;;;;4999405;28;20675;-83
2022/01/10 05:48:12;;;;;;;17.33;10.10;;;3.80;99.90;;;;;;4992600;28;20229;-84
2022/01/10 05:50:42;;;;;;;11.30;9.73;;;3.80;99.90;;;;;;5014985;28;20261;-84
2022/01/10 05:53:10;;;;;;;16.83;11.57;;;3.80;99.90;;;;;;5013573;28;20862;-84
2022/01/10 05:55:37;;;;;;;13.27;10.00;;;3.80;99.90;;;;;;5013232;28;20215;-84
2022/01/10 05:58:05;;;;;;;17.75;10.70;;;3.80;99.90;;;;;;4999584;28;20226;-83
2022/01/10 06:00:32;;;;;;;15.75;13.93;;;3.70;99.90;;;;;;5002426;28;20210;-84
2022/01/10 06:03:00;;;;;;;16.67;12.95;;;3.60;99.90;;;;;;5015152;28;20229;-83
2022/01/10 06:05:30;;;;;;;12.88;10.18;;;3.50;99.90;;;;;;5027115;28;20202;-83
2022/01/10 06:07:58;;;;;;;12.20;10.95;;;3.60;99.90;;;;;;5027396;28;20319;-84
2022/01/10 06:10:25;;;;;;;20.05;13.60;;;3.70;99.90;;;;;;5025517;28;20226;-83
2022/01/10 06:12:52;;;;;;;14.25;10.93;;;3.80;99.90;;;;;;5023953;28;20202;-83
2022/01/10 06:15:19;;;;;;;17.85;12.05;;;3.80;99.90;;;;;;5025291;28;20687;-84
2022/01/10 06:17:46;;;;;;;18.70;11.48;;;3.70;99.90;;;;;;5004148;28;20234;-83
2022/01/10 06:20:15;;;;;;;15.45;12.13;;;3.50;99.90;;;;;;5002390;28;20214;-84
2022/01/10 06:22:42;;;;;;;20.15;11.27;;;3.30;99.90;;;;;;5001763;28;20228;-84
2022/01/10 06:25:11;;;;;;;17.00;11.52;;;3.20;99.90;;;;;;5007133;28;20211;-84
2022/01/10 06:27:38;;;;;;;18.98;10.98;;;3.10;99.90;;;;;;5019743;28;20234;-83
2022/01/10 06:30:07;;;;;;;17.50;12.80;;;3.00;99.90;;;;;;5012957;28;20294;-84
2022/01/10 06:32:34;;;;;;;18.63;12.02;;;3.10;99.90;;;;;;5010098;28;20213;-84
2022/01/10 06:35:01;;;;;;;18.48;13.77;;;3.30;99.90;;;;;;5001592;28;20586;-84
2022/01/10 06:37:29;;;;;;;17.17;12.45;;;3.30;99.90;;;;;;4999625;28;20229;-83
2022/01/10 06:39:56;;;;;;;21.80;15.77;;;3.50;99.90;;;;;;5000573;28;20219;-83
2022/01/10 06:42:22;;;;;;;20.27;13.38;;;3.30;99.90;;;;;;5016669;28;20236;-83
2022/01/10 06:44:49;;;;;;;23.75;15.40;;;3.10;99.90;;;;;;5017436;28;20216;-83
2022/01/10 06:47:16;;;;;;;21.92;14.50;;;3.10;99.90;;;;;;5016271;28;20224;-83
2022/01/10 06:49:43;;;;;;;18.02;13.88;;;3.10;99.90;;;;;;5013001;28;20574;-83
2022/01/10 06:52:10;;;;;;;22.15;14.57;;;3.00;99.90;;;;;;5021103;28;20217;-83
2022/01/10 06:54:38;;;;;;;19.00;11.93;;;2.90;99.90;;;;;;5019922;28;20210;-82
2022/01/10 06:57:05;;;;;;;17.90;14.52;;;2.80;99.90;;;;;;5021346;28;20229;-82
2022/01/10 06:59:32;;;;;;;22.83;13.02;;;2.80;99.90;;;;;;5003631;28;20206;-84
2022/01/10 07:01:58;;;;;;;22.50;13.95;;;2.80;99.90;;;;;;5001390;28;20216;-84
2022/01/10 07:04:26;;;;;;;20.75;12.15;;;2.70;99.90;;;;;;5015627;28;20209;-83
2022/01/10 07:06:53;;;;;;;22.45;13.63;;;2.80;99.90;;;;;;5021868;28;20237;-83
2022/01/10 07:09:21;;;;;;;22.85;13.40;;;2.70;99.90;;;;;;5004816;28;20225;-83
2022/01/10 07:14:32;;;;;;;21.95;12.77;;;2.80;99.90;;;;;;5001694;28;20202;-83
2022/01/10 07:16:59;;;;;;;25.85;17.10;;;2.70;99.90;;;;;;5016570;28;20219;-83
2022/01/10 07:19:26;;;;;;;22.42;13.15;;;2.60;99.90;;;;;;5014462;28;20205;-83
2022/01/10 07:21:53;;;;;;;27.13;17.67;;;2.50;99.90;;;;;;4998555;28;20211;-83
2022/01/10 07:24:21;;;;;;;20.80;12.95;;;2.50;99.90;;;;;;5007848;28;20220;-83
2022/01/10 07:26:49;;;;;;;28.95;15.45;;;2.60;99.90;;;;;;5015879;28;20204;-83
2022/01/10 07:29:16;;;;;;;27.02;15.10;;;2.60;99.90;;;;;;5008824;28;20199;-82
2022/01/10 07:31:43;;;;;;;29.90;16.38;;;2.70;99.90;;;;;;5009083;28;20206;-83
2022/01/10 07:34:14;;;;;;;22.58;13.50;;;2.70;99.90;;;;;;5016684;28;20205;-82
2022/01/10 07:36:41;;;;;;;26.38;15.40;;;2.50;99.90;;;;;;5012910;28;20203;-82
2022/01/10 07:39:07;;;;;;;32.47;17.42;;;2.50;99.90;;;;;;5012961;28;20212;-83
2022/01/10 07:41:34;;;;;;;29.13;15.95;;;2.50;99.90;;;;;;4988947;28;20692;-83
2022/01/10 07:44:02;;;;;;;28.73;17.35;;;2.50;99.90;;;;;;4982035;28;20233;-84
2022/01/10 07:46:29;;;;;;;32.30;16.00;;;2.60;99.90;;;;;;5021970;28;20235;-85
2022/01/10 07:48:56;;;;;;;26.08;14.35;;;2.70;99.90;;;;;;5020143;28;20235;-83
2022/01/10 07:51:23;;;;;;;27.92;15.82;;;2.80;99.90;;;;;;5015529;28;20208;-84
2022/01/10 07:53:51;;;;;;;29.92;15.85;;;2.80;99.90;;;;;;5019865;28;20202;-84
2022/01/10 07:56:18;;;;;;;29.02;15.57;;;2.80;99.90;;;;;;4993312;28;20217;-85
2022/01/10 07:58:46;;;;;;;24.63;14.05;;;2.80;99.90;;;;;;5010954;28;20230;-84
2022/01/10 08:01:14;;;;;;;26.23;15.68;;;2.70;99.90;;;;;;5013182;28;20716;-84
2022/01/10 08:03:41;;;;;;;22.52;14.77;;;2.60;99.90;;;;;;5011327;28;20238;-84
2022/01/10 08:06:08;;;;;;;30.17;16.67;;;2.40;99.90;;;;;;5006249;28;20212;-85
2022/01/10 08:08:35;;;;;;;27.60;15.50;;;2.40;99.90;;;;;;5010277;28;20226;-84
2022/01/10 08:11:02;;;;;;;29.35;15.32;;;2.40;99.90;;;;;;5005348;28;20213;-84
2022/01/10 08:13:29;;;;;;;34.17;16.15;;;2.30;99.90;;;;;;5008467;28;20197;-84
2022/01/10 08:15:56;;;;;;;29.27;13.13;;;2.30;99.90;;;;;;5008413;28;20203;-84
2022/01/10 08:18:24;;;;;;;22.83;13.52;;;2.40;99.90;;;;;;5006012;28;20225;-83
2022/01/10 08:20:51;;;;;;;25.33;15.07;;;2.40;99.90;;;;;;5007870;28;20207;-83
2022/01/10 08:23:17;;;;;;;25.65;16.52;;;2.30;99.90;;;;;;5003048;28;20574;-82
2022/01/10 08:25:44;;;;;;;24.45;15.48;;;2.40;99.90;;;;;;4996585;28;20218;-83
2022/01/10 08:28:11;;;;;;;21.13;13.63;;;2.40;99.90;;;;;;5015433;28;20234;-81
2022/01/10 08:30:37;;;;;;;26.17;16.30;;;2.30;99.90;;;;;;4997073;28;20213;-83
2022/01/10 08:33:07;;;;;;;23.65;15.30;;;2.30;99.90;;;;;;4994358;28;20209;-84
2022/01/10 08:35:36;;;;;;;24.70;15.15;;;2.40;99.90;;;;;;4996752;28;20221;-81
2022/01/10 08:38:02;;;;;;;31.65;16.80;;;2.40;99.90;;;;;;5002223;28;20231;-81
2022/01/10 08:40:29;;;;;;;23.95;15.90;;;2.40;99.90;;;;;;4997954;28;20208;-80
2022/01/10 08:42:56;;;;;;;25.88;18.35;;;2.60;99.90;;;;;;5012655;28;20219;-82
2022/01/10 08:45:23;;;;;;;25.90;14.55;;;2.70;99.90;;;;;;4999517;28;20207;-82
2022/01/10 08:47:50;;;;;;;26.00;12.40;;;2.70;99.90;;;;;;5012664;28;20747;-81
2022/01/10 08:50:17;;;;;;;28.27;15.75;;;2.60;99.90;;;;;;5012565;28;20208;-81
2022/01/10 08:52:45;;;;;;;27.95;14.40;;;2.50;99.90;;;;;;5010550;28;20206;-79
2022/01/10 08:55:12;;;;;;;27.38;14.75;;;2.50;99.90;;;;;;5011581;28;20210;-81
2022/01/10 08:57:39;;;;;;;27.83;17.38;;;2.70;99.90;;;;;;5013157;28;20232;-81
2022/01/10 09:00:08;;;;;;;26.05;14.65;;;2.70;99.90;;;;;;4998327;28;20206;-81
2022/01/10 09:02:35;;;;;;;26.75;16.08;;;2.80;99.90;;;;;;4998221;28;20249;-83
2022/01/10 09:05:02;;;;;;;27.40;17.02;;;2.80;99.90;;;;;;5017253;28;20225;-83
2022/01/10 09:07:28;;;;;;;28.77;16.60;;;2.70;99.90;;;;;;4996031;28;20227;-80
2022/01/10 09:09:56;;;;;;;27.08;15.02;;;2.70;99.90;;;;;;5011413;28;20225;-82
2022/01/10 09:12:23;;;;;;;25.65;16.27;;;2.70;99.90;;;;;;5011833;28;20703;-82
2022/01/10 09:14:50;;;;;;;21.13;14.32;;;2.80;99.90;;;;;;5006820;28;20199;-83
2022/01/10 09:17:17;;;;;;;27.67;16.02;;;3.00;99.90;;;;;;5013312;28;20237;-81
2022/01/10 09:19:43;;;;;;;23.30;16.00;;;3.00;99.90;;;;;;4997445;28;20451;-81
2022/01/10 09:25:40;;;;;;;25.30;15.73;;;3.20;99.90;;;;;;5007224;28;20214;-82
2022/01/10 09:28:25;;;;;;;22.77;16.27;;;3.40;99.90;;;;;;5040869;23;20721;-82
2022/01/10 09:31:37;;;;;;;28.15;16.70;;;3.10;99.90;;;;;;5059350;28;20200;-83
2022/01/10 09:34:04;;;;;;;26.60;19.35;;;3.00;99.90;;;;;;5045012;28;20327;-81
2022/01/10 09:36:34;;;;;;;25.23;15.18;;;2.90;99.90;;;;;;5057148;28;20207;-82
2022/01/10 09:39:02;;;;;;;29.25;16.45;;;2.90;99.90;;;;;;5039890;28;20698;-80
2022/01/10 09:41:31;;;;;;;23.63;15.65;;;2.80;99.90;;;;;;5037398;28;20678;-81
2022/01/10 09:44:02;;;;;;;24.33;15.13;;;2.80;99.90;;;;;;5047835;28;20301;-81
2022/01/10 09:46:30;;;;;;;22.02;15.18;;;3.10;99.90;;;;;;5043830;28;20206;-81
2022/01/10 09:49:00;;;;;;;30.80;17.15;;;3.10;99.90;;;;;;5053390;28;20230;-82
2022/01/10 09:51:28;;;;;;;27.58;16.73;;;3.10;99.90;;;;;;5052607;28;20224;-81
2022/01/10 09:53:55;;;;;;;23.23;17.33;;;3.10;99.90;;;;;;5053368;28;20276;-82
2022/01/10 09:56:23;;;;;;;36.63;18.00;;;3.10;99.90;;;;;;5054096;28;20198;-81
2022/01/10 09:58:53;;;;;;;29.98;17.67;;;3.10;99.90;;;;;;5047724;28;20245;-82
2022/01/10 10:01:20;;;;;;;28.27;17.75;;;3.10;99.90;;;;;;5046803;28;20613;-80
2022/01/10 10:03:48;;;;;;;28.85;18.20;;;3.20;99.90;;;;;;5041665;28;20261;-80
2022/01/10 10:06:16;;;;;;;25.55;17.30;;;3.30;99.90;;;;;;5038726;28;20218;-80
2022/01/10 10:08:44;;;;;;;27.77;17.48;;;3.40;99.90;;;;;;5046121;28;20311;-81
2022/01/10 10:11:12;;;;;;;24.52;17.38;;;3.30;99.90;;;;;;5049488;28;20583;-81
2022/01/10 10:13:43;;;;;;;31.27;18.25;;;3.30;99.90;;;;;;5036987;28;20236;-82
2022/01/10 10:16:15;;;;;;;35.97;19.67;;;3.40;99.90;;;;;;5032415;28;20204;-81
2022/01/10 10:18:43;;;;;;;30.38;19.33;;;3.60;99.90;;;;;;5032044;28;20226;-79
2022/01/10 10:21:14;;;;;;;29.95;17.20;;;3.70;99.90;;;;;;5031677;28;20200;-80
2022/01/10 10:23:46;;;;;;;25.48;18.25;;;3.80;99.90;;;;;;5028099;28;20229;-79
2022/01/10 10:26:15;;;;;;;26.10;16.75;;;3.90;99.90;;;;;;5014621;28;20218;-80
2022/01/10 10:28:42;;;;;;;25.95;17.27;;;3.90;99.90;;;;;;5013679;28;20797;-80
2022/01/10 10:31:08;;;;;;;24.48;16.95;;;3.90;99.90;;;;;;5019212;28;20206;-80
2022/01/10 10:33:46;;;;;;;27.48;17.33;;;4.00;99.90;;;;;;5035876;28;20213;-79
2022/01/10 10:36:13;;;;;;;19.48;15.80;;;4.10;99.90;;;;;;5015609;28;20206;-79
2022/01/10 10:38:40;;;;;;;23.27;17.52;;;4.40;99.90;;;;;;5023806;28;20228;-82
2022/01/10 10:41:07;;;;;;;24.30;17.23;;;4.60;99.90;;;;;;5029975;28;20216;-82
2022/01/10 10:43:35;;;;;;;27.35;17.00;;;4.70;99.90;;;;;;5021627;28;20226;-82
2022/01/10 10:46:03;;;;;;;22.30;16.27;;;4.60;99.90;;;;;;5031096;28;20210;-82
2022/01/10 10:48:34;;;;;;;20.40;14.93;;;4.50;99.90;;;;;;5017558;28;20229;-85
2022/01/10 10:51:02;;;;;;;25.98;15.35;;;4.40;99.90;;;;;;5033586;28;20201;-83
2022/01/10 10:53:30;;;;;;;18.38;12.80;;;4.50;99.90;;;;;;5032729;28;20288;-83
2022/01/10 10:55:59;;;;;;;17.23;12.55;;;4.70;99.90;;;;;;5034856;28;20195;-83
2022/01/10 10:58:28;;;;;;;15.85;12.10;;;4.70;99.90;;;;;;5015712;28;20251;-83
2022/01/10 11:00:55;;;;;;;23.25;14.98;;;4.70;99.90;;;;;;5031542;28;20201;-83
2022/01/10 11:03:23;;;;;;;20.05;13.23;;;4.90;99.90;;;;;;5044618;28;20221;-82
2022/01/10 11:05:53;;;;;;;14.77;11.18;;;5.10;99.90;;;;;;5036368;28;20209;-84
2022/01/10 11:14:39;;;;;;;14.07;11.73;;;5.60;99.90;;;;;;4937319;28;20211;-85
2022/01/10 11:17:05;;;;;;;19.10;12.63;;;5.80;99.90;;;;;;5018371;28;20243;-84
2022/01/10 11:19:32;;;;;;;15.02;11.88;;;5.60;99.90;;;;;;5019232;28;20203;-84
2022/01/10 11:22:05;;;;;;;19.48;13.32;;;5.40;99.90;;;;;;5015984;28;20203;-85
2022/01/10 11:24:50;;;;;;;17.42;12.55;;;5.30;99.90;;;;;;5014617;28;20592;-85
2022/01/10 11:27:32;;;;;;;19.88;12.10;;;4.60;99.90;;;;;;5015225;28;20229;-85
2022/01/10 11:29:59;;;;;;;15.90;11.93;;;4.50;99.90;;;;;;5017287;28;20199;-85
2022/01/10 11:32:56;;;;;;;16.73;13.30;;;4.60;99.90;;;;;;5029767;28;20218;-84
2022/01/10 11:35:26;;;;;;;13.95;10.98;;;4.90;99.90;;;;;;5029054;28;20229;-84
2022/01/10 11:37:53;;;;;;;18.38;13.45;;;5.10;99.90;;;;;;5022321;28;20226;-84
2022/01/10 11:40:21;;;;;;;22.80;12.57;;;5.30;99.90;;;;;;5029776;28;20365;-84
2022/01/10 11:42:54;;;;;;;17.92;13.32;;;5.30;99.90;;;;;;5031544;28;20227;-83
2022/01/10 11:45:21;;;;;;;18.58;14.05;;;5.30;99.90;;;;;;5032012;28;20237;-83
2022/01/10 11:48:15;;;;;;;19.70;14.57;;;5.40;99.90;;;;;;5031113;28;20254;-84
2022/01/10 11:50:44;;;;;;;14.95;10.20;;;5.40;99.90;;;;;;5026490;28;20266;-84
2022/01/10 11:53:11;;;;;;;15.93;11.93;;;5.10;99.90;;;;;;5029829;28;20187;-83
2022/01/10 11:55:55;;;;;;;13.65;10.18;;;5.10;99.90;;;;;;5040296;28;20262;-83
2022/01/10 11:58:24;;;;;;;12.25;11.00;;;5.10;99.90;;;;;;5039042;28;20225;-82
2022/01/10 12:01:04;;;;;;;11.98;9.60;;;5.10;99.90;;;;;;5039087;28;20226;-83
2022/01/10 12:03:32;;;;;;;13.68;11.10;;;5.10;99.90;;;;;;5033675;28;20237;-84
2022/01/10 12:05:59;;;;;;;14.18;10.60;;;5.30;99.90;;;;;;5017253;28;20211;-84
2022/01/10 12:08:26;;;;;;;13.23;11.23;;;5.60;99.90;;;;;;5014375;28;20724;-84
2022/01/10 12:10:56;;;;;;;17.05;12.23;;;5.80;99.90;;;;;;5016820;28;20214;-83
2022/01/10 12:13:26;;;;;;;13.20;10.65;;;6.00;99.90;;;;;;5028245;28;20564;-84
2022/01/10 12:15:59;;;;;;;12.82;10.05;;;5.70;99.90;;;;;;5028677;28;20210;-84
2022/01/10 12:18:25;;;;;;;17.02;13.23;;;5.40;99.90;;;;;;5028862;28;20231;-84
2022/01/10 12:20:53;;;;;;;13.93;12.02;;;5.50;99.90;;;;;;5028193;28;20211;-84
2022/01/10 12:23:19;;;;;;;16.10;11.98;;;5.40;99.90;;;;;;5029574;28;20207;-84
2022/01/10 12:25:48;;;;;;;14.35;11.07;;;5.20;99.90;;;;;;5023947;28;20279;-84
2022/01/10 12:28:16;;;;;;;19.15;13.30;;;5.30;99.90;;;;;;5027799;28;20227;-83
2022/01/10 12:30:44;;;;;;;21.20;11.35;;;5.20;99.90;;;;;;5027535;28;20207;-84
2022/01/10 12:33:11;;;;;;;17.27;12.60;;;5.40;99.90;;;;;;5028944;28;20211;-83
2022/01/10 12:35:38;;;;;;;18.55;13.23;;;5.20;99.90;;;;;;5029150;28;20203;-84
2022/01/10 12:38:05;;;;;;;18.80;12.63;;;5.40;99.90;;;;;;5025215;28;20231;-83
2022/01/10 12:40:33;;;;;;;13.23;11.15;;;5.70;99.90;;;;;;5029543;28;20227;-84
2022/01/10 12:43:00;;;;;;;17.95;12.52;;;5.80;99.90;;;;;;5029212;28;20211;-83
2022/01/10 12:45:35;;;;;;;18.85;9.73;;;5.70;99.90;;;;;;5029620;28;20230;-85
2022/01/10 12:48:02;;;;;;;12.52;9.95;;;5.60;99.90;;;;;;5025393;28;20253;-84
2022/01/10 12:50:29;;;;;;;14.90;10.15;;;5.60;99.90;;;;;;5026970;28;20219;-84
2022/01/10 12:52:56;;;;;;;10.80;9.70;;;5.30;99.90;;;;;;5029157;28;20198;-84
2022/01/10 12:55:23;;;;;;;15.30;12.43;;;5.30;99.90;;;;;;5019312;28;20812;-84
2022/01/10 12:57:50;;;;;;;14.35;12.35;;;5.50;99.90;;;;;;5021994;28;20248;-84
2022/01/10 13:00:19;;;;;;;11.73;10.32;;;5.50;99.90;;;;;;5029147;28;20217;-84
2022/01/10 13:02:47;;;;;;;17.25;11.13;;;5.20;99.90;;;;;;5028535;28;20253;-82
2022/01/10 13:05:16;;;;;;;17.48;10.65;;;5.10;99.90;;;;;;5020412;28;20310;-84
2022/01/10 13:07:44;;;;;;;19.40;12.50;;;5.00;99.90;;;;;;5023024;28;20234;-84